Time;durP1;ratioP1;P1;durP2;ratioP2;P2;SDS_P1;SDS_P2;PMS_P1;PMS_P2;Temp;Humidity;BMP_temperature;BMP_pressure;BME280_temperature;BME280_humidity;BME280_pressure;Samples;Min_cycle;Max_cycle;Signal;HPM_P1;HPM_P2
2020/12/16 00:01:19;;;;;;;17.05;5.63;;;20.80;88.90;;;;;;6342513;22;20338;-79
2020/12/16 00:03:46;;;;;;;18.98;6.63;;;20.70;88.90;;;;;;6346927;22;20023;-79
2020/12/16 00:06:15;;;;;;;16.85;5.22;;;20.70;89.00;;;;;;6356383;22;20019;-80
2020/12/16 00:08:42;;;;;;;17.05;5.47;;;20.70;89.00;;;;;;6343582;22;20022;-80
2020/12/16 00:11:10;;;;;;;17.00;5.80;;;20.70;89.10;;;;;;6347085;22;20021;-79
2020/12/16 00:13:37;;;;;;;19.08;7.10;;;20.70;89.20;;;;;;6348434;22;20019;-78
2020/12/16 00:16:05;;;;;;;17.88;6.25;;;20.70;89.20;;;;;;6344364;22;20014;-78
2020/12/16 00:18:32;;;;;;;19.05;6.07;;;20.70;89.30;;;;;;6338359;22;20022;-78
2020/12/16 00:21:02;;;;;;;17.80;5.50;;;20.70;89.40;;;;;;6336967;22;20011;-78
2020/12/16 00:23:29;;;;;;;16.80;5.35;;;20.70;89.50;;;;;;6337623;22;20022;-78
2020/12/16 00:25:56;;;;;;;16.90;5.65;;;20.70;89.50;;;;;;6344085;22;20030;-78
2020/12/16 00:28:23;;;;;;;17.58;6.32;;;20.70;89.60;;;;;;6338947;22;20019;-79
2020/12/16 00:30:50;;;;;;;17.60;5.53;;;20.70;89.60;;;;;;6356450;22;20038;-79
2020/12/16 00:33:18;;;;;;;18.23;5.30;;;20.70;89.80;;;;;;6346362;22;20045;-79
2020/12/16 00:35:45;;;;;;;15.65;5.28;;;20.70;89.80;;;;;;6337738;22;20019;-78
2020/12/16 00:38:13;;;;;;;15.73;5.60;;;20.70;89.80;;;;;;6337236;22;20473;-78
2020/12/16 00:40:40;;;;;;;17.60;5.95;;;20.70;90.10;;;;;;6338305;22;20011;-80
2020/12/16 00:43:07;;;;;;;16.70;5.82;;;20.70;89.60;;;;;;6336403;22;20011;-79
2020/12/16 00:45:33;;;;;;;16.80;5.78;;;20.70;89.60;;;;;;6309855;22;20007;-79
2020/12/16 00:48:01;;;;;;;13.82;5.35;;;20.70;89.60;;;;;;6343278;22;20015;-79
2020/12/16 00:50:29;;;;;;;16.67;6.00;;;20.80;89.60;;;;;;6341218;22;20033;-79
2020/12/16 00:53:01;;;;;;;14.98;5.80;;;20.70;89.50;;;;;;6353949;22;20019;-79
2020/12/16 00:55:33;;;;;;;16.00;5.45;;;20.70;89.50;;;;;;6344357;22;20023;-79
2020/12/16 00:58:00;;;;;;;17.55;5.75;;;20.70;89.50;;;;;;6314867;22;20072;-79
2020/12/16 01:00:29;;;;;;;14.00;4.78;;;20.70;89.50;;;;;;6316129;22;20019;-79
2020/12/16 01:03:03;;;;;;;14.07;5.28;;;20.70;89.60;;;;;;6290302;22;20026;-78
2020/12/16 01:05:31;;;;;;;15.80;5.18;;;20.70;89.70;;;;;;6315003;22;20019;-79
2020/12/16 01:07:58;;;;;;;14.23;5.25;;;20.60;89.80;;;;;;6342130;22;20333;-79
2020/12/16 01:10:25;;;;;;;14.97;5.30;;;20.60;89.90;;;;;;6315192;22;20022;-79
2020/12/16 01:12:52;;;;;;;15.47;5.43;;;20.50;90.00;;;;;;6343287;22;20014;-79
2020/12/16 01:15:23;;;;;;;14.88;5.38;;;20.50;90.00;;;;;;6342944;22;20022;-79
2020/12/16 01:17:59;;;;;;;17.10;5.80;;;20.50;90.10;;;;;;6315404;22;20018;-79
2020/12/16 01:20:36;;;;;;;13.55;4.85;;;20.50;90.50;;;;;;6316261;22;20015;-78
2020/12/16 01:23:16;;;;;;;19.05;6.25;;;20.40;90.30;;;;;;6314260;22;20019;-78
2020/12/16 01:25:43;;;;;;;16.30;5.47;;;20.40;90.40;;;;;;6343022;22;20018;-79
2020/12/16 01:28:12;;;;;;;17.63;5.18;;;20.40;90.50;;;;;;6315537;22;20015;-79
2020/12/16 01:30:47;;;;;;;15.98;5.53;;;20.40;90.50;;;;;;6317155;22;20014;-79
2020/12/16 01:33:15;;;;;;;;;;;20.30;90.60;;;;;;6350675;22;20003;-79
2020/12/16 01:35:47;;;;;;;16.63;5.35;;;20.30;90.60;;;;;;6328076;22;20124;-79
2020/12/16 01:38:14;;;;;;;18.33;5.35;;;20.30;90.70;;;;;;6339461;22;20018;-78
2020/12/16 01:40:45;;;;;;;17.20;5.28;;;20.30;90.70;;;;;;6318483;22;20015;-79
2020/12/16 01:43:14;;;;;;;15.38;4.97;;;20.30;90.80;;;;;;6356154;22;20345;-79
2020/12/16 01:45:41;;;;;;;15.60;5.45;;;20.30;90.80;;;;;;6331540;22;20003;-78
2020/12/16 01:48:08;;;;;;;15.07;5.83;;;20.20;90.90;;;;;;6323459;22;20353;-79
2020/12/16 01:50:36;;;;;;;15.85;5.63;;;20.20;90.90;;;;;;6312879;22;20274;-79
2020/12/16 01:53:08;;;;;;;16.10;5.22;;;20.20;91.00;;;;;;6355291;22;20022;-79
2020/12/16 01:55:41;;;;;;;13.75;5.05;;;20.20;91.00;;;;;;6317418;22;20023;-80
2020/12/16 01:58:28;;;;;;;15.90;5.22;;;20.20;91.10;;;;;;6318121;22;20027;-80
2020/12/16 02:01:01;;;;;;;15.25;5.00;;;20.10;91.10;;;;;;6313650;22;20096;-79
2020/12/16 02:03:29;;;;;;;15.25;5.53;;;20.10;91.10;;;;;;6310251;22;20011;-79
2020/12/16 02:06:11;;;;;;;16.92;5.47;;;20.20;91.20;;;;;;6312115;22;20023;-79
2020/12/16 02:08:42;;;;;;;14.48;5.40;;;20.10;91.20;;;;;;6313927;22;20014;-79
2020/12/16 02:11:14;;;;;;;15.27;5.00;;;20.20;91.20;;;;;;6314592;22;20025;-79
2020/12/16 02:13:47;;;;;;;13.50;5.25;;;20.20;91.10;;;;;;6311529;22;20516;-78
2020/12/16 02:16:16;;;;;;;14.77;4.95;;;20.30;91.00;;;;;;6343169;22;20015;-79
2020/12/16 02:18:47;;;;;;;14.60;5.03;;;20.30;90.90;;;;;;6341995;22;20011;-79
2020/12/16 02:21:19;;;;;;;12.50;4.28;;;20.40;90.80;;;;;;6289490;22;20021;-78
2020/12/16 02:24:01;;;;;;;15.07;5.43;;;20.40;90.70;;;;;;6342991;22;20022;-79
2020/12/16 02:26:32;;;;;;;19.50;5.28;;;20.50;90.60;;;;;;6338063;22;20019;-78
2020/12/16 02:29:03;;;;;;;15.38;4.70;;;20.50;90.50;;;;;;6310343;22;20033;-78
2020/12/16 02:31:32;;;;;;;15.73;5.22;;;20.50;90.50;;;;;;6313171;22;20036;-79
2020/12/16 02:34:09;;;;;;;13.60;5.43;;;20.50;90.40;;;;;;6341763;22;20030;-79
2020/12/16 02:36:40;;;;;;;14.88;4.88;;;20.50;90.40;;;;;;6343088;22;20015;-79
2020/12/16 02:39:11;;;;;;;14.40;5.13;;;20.50;90.40;;;;;;6288019;22;20027;-79
2020/12/16 02:42:09;;;;;;;14.25;5.00;;;20.50;90.40;;;;;;6315205;22;20011;-79
2020/12/16 02:44:37;;;;;;;12.68;4.63;;;20.50;90.50;;;;;;6310129;22;20011;-78
2020/12/16 02:47:20;;;;;;;13.23;4.55;;;20.40;90.50;;;;;;6303762;22;20366;-78
2020/12/16 02:49:48;;;;;;;15.65;5.35;;;20.40;90.60;;;;;;6333995;22;20429;-78
2020/12/16 02:52:15;;;;;;;13.57;5.13;;;20.40;90.60;;;;;;6314224;22;20015;-77
2020/12/16 02:54:42;;;;;;;13.55;4.57;;;20.40;90.60;;;;;;6355982;22;20025;-78
2020/12/16 02:57:19;;;;;;;;;;;20.30;90.70;;;;;;6365364;22;20011;-77
2020/12/16 02:59:57;;;;;;;11.68;4.22;;;20.30;90.70;;;;;;6317839;22;19924;-78
2020/12/16 03:02:49;;;;;;;14.15;4.75;;;20.30;90.80;;;;;;6305782;22;20022;-78
2020/12/16 03:05:35;;;;;;;13.48;4.43;;;20.30;90.90;;;;;;6351196;22;20566;-78
2020/12/16 03:08:07;;;;;;;13.57;4.43;;;20.20;90.90;;;;;;6312344;22;20019;-79
2020/12/16 03:10:39;;;;;;;12.43;4.70;;;20.20;91.00;;;;;;6307949;22;20023;-78
2020/12/16 03:13:06;;;;;;;12.20;4.00;;;20.20;91.00;;;;;;6336815;22;20446;-78
2020/12/16 03:15:33;;;;;;;9.73;4.10;;;20.10;91.00;;;;;;6334339;22;20022;-79
2020/12/16 03:18:01;;;;;;;11.85;4.47;;;20.10;91.10;;;;;;6310545;22;20025;-79
2020/12/16 03:20:28;;;;;;;13.50;4.40;;;20.10;91.20;;;;;;6312407;22;20015;-78
2020/12/16 03:22:56;;;;;;;;;;;20.10;91.20;;;;;;6311420;22;20041;-77
2020/12/16 03:25:48;;;;;;;11.38;4.30;;;20.10;91.30;;;;;;6338845;22;19929;-78
2020/12/16 03:28:27;;;;;;;13.60;4.40;;;20.00;91.30;;;;;;6308970;22;20365;-78
2020/12/16 03:31:17;;;;;;;13.38;4.43;;;20.00;91.40;;;;;;6335610;22;20042;-78
2020/12/16 03:34:04;;;;;;;10.88;4.03;;;20.00;91.40;;;;;;6332852;22;20489;-78
2020/12/16 03:36:53;;;;;;;13.05;4.82;;;20.00;91.50;;;;;;6351645;22;20021;-79
2020/12/16 03:39:21;;;;;;;12.95;4.35;;;20.00;91.50;;;;;;6313510;22;20015;-78
2020/12/16 03:41:51;;;;;;;14.82;4.25;;;20.00;91.50;;;;;;6332773;22;20014;-78
2020/12/16 03:44:19;;;;;;;9.55;3.72;;;20.00;91.50;;;;;;6330402;22;20011;-78
2020/12/16 03:46:52;;;;;;;14.20;4.50;;;20.00;91.50;;;;;;6329999;22;20033;-78
2020/12/16 03:49:21;;;;;;;15.05;4.72;;;20.00;91.40;;;;;;6304828;22;20026;-78
2020/12/16 03:51:58;;;;;;;10.88;4.20;;;20.10;91.40;;;;;;6306108;22;20019;-78
2020/12/16 03:54:42;;;;;;;11.95;4.28;;;20.10;91.40;;;;;;6305380;22;20019;-78
2020/12/16 03:57:39;;;;;;;13.40;4.40;;;20.10;91.30;;;;;;6251807;22;20031;-78
2020/12/16 04:00:21;;;;;;;10.38;3.90;;;20.10;91.20;;;;;;6309518;22;20014;-78
2020/12/16 04:02:54;;;;;;;13.00;4.43;;;20.10;91.20;;;;;;6312223;22;20465;-77
2020/12/16 04:05:37;;;;;;;11.70;3.90;;;20.10;91.20;;;;;;6314452;22;20027;-78
2020/12/16 04:08:05;;;;;;;12.63;4.15;;;20.10;91.20;;;;;;6280969;22;20358;-78
2020/12/16 04:10:58;;;;;;;11.63;4.25;;;20.10;91.20;;;;;;6309543;22;20038;-78
2020/12/16 04:13:25;;;;;;;10.77;4.30;;;20.10;91.20;;;;;;6331498;22;20023;-78
2020/12/16 04:15:52;;;;;;;10.23;3.83;;;20.10;91.30;;;;;;6307616;22;20018;-79
2020/12/16 04:18:20;;;;;;;11.20;3.80;;;20.00;91.30;;;;;;6307307;22;20026;-77
2020/12/16 04:20:47;;;;;;;10.63;4.03;;;20.00;91.30;;;;;;6342804;22;20018;-79
2020/12/16 04:23:14;;;;;;;9.82;3.75;;;20.00;91.40;;;;;;6355238;22;20006;-79
2020/12/16 04:25:48;;;;;;;12.40;4.53;;;19.90;91.40;;;;;;6313978;22;20441;-79
2020/12/16 04:28:18;;;;;;;10.48;3.80;;;19.90;91.50;;;;;;6340202;22;20019;-79
2020/12/16 04:30:45;;;;;;;9.25;3.55;;;19.90;91.60;;;;;;6313907;22;20327;-78
2020/12/16 04:33:12;;;;;;;11.90;4.30;;;19.90;91.60;;;;;;6310933;22;20015;-78
2020/12/16 04:35:39;;;;;;;13.00;4.22;;;19.80;91.70;;;;;;6310309;22;20022;-78
2020/12/16 04:38:06;;;;;;;11.07;3.60;;;19.80;91.80;;;;;;6337523;22;20026;-78
2020/12/16 04:40:41;;;;;;;15.48;4.32;;;19.80;91.80;;;;;;6338009;22;20029;-79
2020/12/16 04:43:18;;;;;;;12.23;4.15;;;19.80;91.80;;;;;;6310348;22;20022;-78
2020/12/16 04:45:47;;;;;;;14.98;4.18;;;19.80;91.80;;;;;;6312809;22;20627;-79
2020/12/16 04:48:15;;;;;;;9.27;3.47;;;19.80;91.80;;;;;;6307847;22;20030;-79
2020/12/16 04:50:50;;;;;;;9.10;3.47;;;19.90;91.80;;;;;;6310847;22;20026;-78
2020/12/16 04:53:20;;;;;;;11.77;3.40;;;19.90;91.80;;;;;;6312727;22;20019;-78
2020/12/16 04:56:02;;;;;;;13.10;4.72;;;19.90;92.10;;;;;;6306552;22;20033;-78
2020/12/16 04:58:56;;;;;;;11.43;3.70;;;19.90;91.80;;;;;;6330595;22;20023;-78
2020/12/16 05:01:24;;;;;;;9.10;3.75;;;20.00;91.70;;;;;;6307633;22;20522;-78
2020/12/16 05:03:55;;;;;;;9.40;3.47;;;20.10;91.40;;;;;;6305862;22;20022;-78
2020/12/16 05:06:42;;;;;;;13.18;4.00;;;20.20;91.20;;;;;;6307236;22;20015;-80
2020/12/16 05:09:16;;;;;;;11.48;3.88;;;20.20;91.10;;;;;;6349570;22;20018;-78
2020/12/16 05:11:48;;;;;;;9.90;3.70;;;20.30;91.00;;;;;;6360586;22;19998;-80
2020/12/16 05:14:17;;;;;;;9.73;3.40;;;20.30;90.90;;;;;;6357972;22;20015;-81
2020/12/16 05:17:03;;;;;;;10.90;3.80;;;20.50;90.70;;;;;;6342783;22;20018;-79
2020/12/16 05:19:44;;;;;;;13.88;3.60;;;20.60;90.40;;;;;;6354220;22;20015;-79
2020/12/16 05:22:22;;;;;;;9.68;3.80;;;20.70;90.20;;;;;;6345347;22;20029;-78
2020/12/16 05:24:55;;;;;;;9.18;3.50;;;20.80;90.10;;;;;;6343498;22;20011;-80
2020/12/16 05:27:27;;;;;;;9.95;3.75;;;20.90;90.20;;;;;;6363659;22;20021;-79
2020/12/16 05:30:04;;;;;;;9.77;3.50;;;20.90;90.30;;;;;;6352947;22;20015;-79
2020/12/16 05:32:34;;;;;;;9.70;3.80;;;21.00;90.40;;;;;;6309880;22;20023;-79
2020/12/16 05:35:37;;;;;;;12.65;4.55;;;21.00;90.60;;;;;;6306576;22;20021;-78
2020/12/16 05:38:07;;;;;;;11.07;3.70;;;21.10;90.60;;;;;;6352962;22;20013;-79
2020/12/16 05:40:37;;;;;;;14.00;3.85;;;21.20;90.30;;;;;;6351674;22;20480;-79
2020/12/16 05:43:05;;;;;;;12.82;4.00;;;21.30;90.00;;;;;;6314412;22;20014;-79
2020/12/16 05:45:36;;;;;;;;;;;21.40;89.40;;;;;;6343406;22;20021;-79
2020/12/16 05:48:06;;;;;;;11.20;3.80;;;21.40;89.20;;;;;;6340951;22;19914;-79
2020/12/16 05:50:40;;;;;;;9.73;3.53;;;21.40;89.60;;;;;;6339952;22;20014;-79
2020/12/16 05:53:21;;;;;;;10.18;3.72;;;21.40;88.90;;;;;;6319755;22;20538;-79
2020/12/16 05:56:00;;;;;;;10.85;4.13;;;21.40;88.80;;;;;;6345878;22;20366;-77
2020/12/16 05:58:30;;;;;;;9.18;3.55;;;21.40;88.60;;;;;;6334521;22;20015;-78
2020/12/16 06:01:03;;;;;;;11.88;3.55;;;21.50;88.50;;;;;;6310213;22;20019;-78
2020/12/16 06:03:35;;;;;;;8.77;3.13;;;21.60;88.10;;;;;;6344400;22;20014;-78
2020/12/16 06:06:02;;;;;;;18.27;3.92;;;21.60;87.90;;;;;;6281932;22;20015;-78
2020/12/16 06:08:37;;;;;;;11.27;4.20;;;21.70;88.40;;;;;;6323949;22;20025;-80
2020/12/16 06:11:11;;;;;;;11.05;3.85;;;21.80;88.20;;;;;;6302654;22;20006;-80
2020/12/16 06:13:46;;;;;;;13.43;3.42;;;21.80;88.30;;;;;;6324948;22;20019;-80
2020/12/16 06:16:13;;;;;;;11.93;3.80;;;21.80;88.20;;;;;;6309886;22;20019;-80
2020/12/16 06:18:44;;;;;;;16.83;5.10;;;21.90;87.70;;;;;;6308164;22;20014;-80
2020/12/16 06:21:13;;;;;;;12.02;3.72;;;22.00;87.40;;;;;;6309421;22;20021;-81
2020/12/16 06:23:44;;;;;;;11.23;3.67;;;22.00;87.10;;;;;;6281880;22;20026;-77
2020/12/16 06:26:13;;;;;;;10.27;3.95;;;22.00;87.00;;;;;;6282582;22;20338;-78
2020/12/16 06:28:41;;;;;;;22.23;3.97;;;21.90;87.20;;;;;;6334812;22;20022;-81
2020/12/16 06:31:20;;;;;;;9.77;3.70;;;21.80;87.60;;;;;;6334613;22;20015;-77
2020/12/16 06:33:56;;;;;;;12.55;4.00;;;21.80;88.00;;;;;;6307287;22;20398;-78
2020/12/16 06:36:29;;;;;;;12.48;3.78;;;21.70;88.30;;;;;;6305478;22;20470;-78
2020/12/16 06:38:56;;;;;;;12.07;3.53;;;21.60;89.40;;;;;;6306323;22;20022;-77
2020/12/16 06:41:29;;;;;;;11.48;3.92;;;21.60;90.10;;;;;;6335147;22;20011;-78
2020/12/16 06:44:08;;;;;;;9.55;3.42;;;21.70;90.00;;;;;;6346813;22;20026;-77
2020/12/16 06:46:34;;;;;;;9.02;3.55;;;21.80;89.50;;;;;;6362417;22;20019;-77
2020/12/16 06:49:25;;;;;;;11.85;3.75;;;22.00;88.80;;;;;;6346390;22;20358;-78
2020/12/16 06:51:55;;;;;;;12.27;4.07;;;22.20;87.80;;;;;;6334263;22;20030;-78
2020/12/16 06:54:25;;;;;;;14.00;4.53;;;22.40;86.80;;;;;;6336063;22;20018;-78
2020/12/16 06:57:12;;;;;;;9.55;3.63;;;22.60;85.80;;;;;;6335601;22;20018;-77
2020/12/16 06:59:45;;;;;;;8.93;3.42;;;22.70;85.10;;;;;;6344846;22;20026;-78
2020/12/16 07:02:14;;;;;;;8.85;3.55;;;22.90;84.50;;;;;;6352355;22;20019;-76
2020/12/16 07:04:41;;;;;;;9.38;3.25;;;23.10;83.90;;;;;;6332985;22;20025;-77
2020/12/16 07:07:40;;;;;;;9.87;3.77;;;23.20;83.10;;;;;;6333609;22;20370;-77
2020/12/16 07:10:33;;;;;;;10.73;3.40;;;23.40;82.20;;;;;;6341415;22;20011;-77
2020/12/16 07:13:28;;;;;;;12.20;3.83;;;23.50;82.00;;;;;;6347227;22;20638;-78
2020/12/16 07:15:58;;;;;;;11.68;3.88;;;23.50;81.20;;;;;;6283905;22;20014;-78
2020/12/16 07:18:49;;;;;;;14.27;3.92;;;23.50;81.10;;;;;;6307160;22;20015;-80
2020/12/16 07:21:22;;;;;;;12.75;4.78;;;23.40;81.30;;;;;;6323962;22;20023;-81
2020/12/16 07:24:04;;;;;;;15.95;4.28;;;23.40;81.90;;;;;;6304028;22;20023;-79
2020/12/16 07:26:50;;;;;;;21.45;5.95;;;23.20;82.30;;;;;;6303814;22;20018;-79
2020/12/16 07:29:23;;;;;;;23.42;5.13;;;23.20;83.90;;;;;;6278108;22;20357;-79
2020/12/16 07:32:12;;;;;;;19.88;5.80;;;23.20;86.00;;;;;;6326111;22;20730;-79
2020/12/16 07:34:42;;;;;;;29.35;8.77;;;23.20;84.20;;;;;;6352281;22;20027;-81
2020/12/16 07:37:10;;;;;;;24.40;8.40;;;23.40;77.10;;;;;;6345991;22;20011;-79
2020/12/16 07:39:51;;;;;;;27.02;9.23;;;23.40;76.50;;;;;;6338107;22;20011;-81
2020/12/16 07:42:21;;;;;;;20.75;7.18;;;23.20;78.20;;;;;;6326164;22;20492;-79
2020/12/16 07:44:49;;;;;;;21.52;7.88;;;23.10;79.20;;;;;;6273919;22;20023;-79
2020/12/16 07:47:17;;;;;;;24.50;7.78;;;23.10;79.90;;;;;;6293623;22;20027;-78
2020/12/16 07:49:45;;;;;;;24.10;7.63;;;23.00;80.20;;;;;;6333638;22;20015;-78
2020/12/16 07:52:13;;;;;;;18.65;6.38;;;23.00;80.50;;;;;;6334134;22;20098;-78
2020/12/16 07:54:40;;;;;;;19.27;6.55;;;22.90;80.70;;;;;;6333497;22;20023;-78
2020/12/16 07:57:07;;;;;;;;;;;22.90;81.10;;;;;;6281230;22;20022;-78
2020/12/16 07:59:36;;;;;;;23.45;6.55;;;22.80;81.30;;;;;;6306685;22;19918;-78
2020/12/16 08:02:07;;;;;;;19.67;5.85;;;22.70;81.80;;;;;;6280960;22;20761;-77
2020/12/16 08:04:34;;;;;;;18.88;5.18;;;22.70;82.20;;;;;;6335644;22;20295;-77
2020/12/16 08:07:19;;;;;;;19.98;6.10;;;22.60;82.40;;;;;;6334366;22;20414;-80
2020/12/16 08:10:06;;;;;;;19.13;5.45;;;22.60;82.40;;;;;;6306389;22;20026;-78
2020/12/16 08:12:41;;;;;;;19.17;5.15;;;22.60;82.50;;;;;;6315228;22;20018;-78
2020/12/16 08:15:13;;;;;;;18.02;5.32;;;22.70;82.90;;;;;;6331433;22;20409;-77
2020/12/16 08:17:41;;;;;;;17.52;5.63;;;22.70;83.40;;;;;;6342669;22;20018;-77
2020/12/16 08:20:25;;;;;;;19.90;5.18;;;22.60;83.60;;;;;;6331957;22;20432;-79
2020/12/16 08:22:58;;;;;;;16.55;4.80;;;22.70;83.90;;;;;;6303910;22;20026;-77
2020/12/16 08:25:27;;;;;;;14.75;4.90;;;22.70;84.00;;;;;;6303284;22;20014;-77
2020/12/16 08:27:56;;;;;;;20.92;6.13;;;22.70;84.00;;;;;;6331420;22;20019;-78
2020/12/16 08:30:27;;;;;;;14.98;4.40;;;22.60;84.30;;;;;;6342391;22;20030;-77
2020/12/16 08:33:08;;;;;;;17.90;5.22;;;22.60;84.60;;;;;;6331846;22;20059;-77
2020/12/16 08:35:42;;;;;;;19.88;4.63;;;22.50;85.20;;;;;;6304399;22;20018;-76
2020/12/16 08:38:09;;;;;;;17.83;4.90;;;22.50;85.60;;;;;;6331963;22;20011;-80
2020/12/16 08:40:44;;;;;;;;;;;22.40;85.90;;;;;;6333481;22;20010;-78
2020/12/16 08:43:19;;;;;;;15.73;5.18;;;22.40;86.20;;;;;;6350630;22;19925;-77
2020/12/16 08:45:57;;;;;;;15.15;4.13;;;22.40;86.30;;;;;;6351370;22;20025;-78
2020/12/16 08:48:44;;;;;;;15.60;5.10;;;22.40;86.20;;;;;;6358729;22;20015;-77
2020/12/16 08:51:18;;;;;;;19.85;4.78;;;22.40;86.30;;;;;;6369729;22;20084;-79
2020/12/16 08:53:51;;;;;;;17.05;4.63;;;22.40;86.20;;;;;;6328519;22;19999;-78
2020/12/16 08:56:42;;;;;;;17.05;4.25;;;22.40;86.30;;;;;;6357956;22;20018;-77
2020/12/16 08:59:17;;;;;;;16.08;4.70;;;22.40;86.40;;;;;;6350891;22;20025;-79
2020/12/16 09:01:48;;;;;;;15.05;4.72;;;22.40;86.70;;;;;;6340445;22;20030;-78
2020/12/16 09:04:24;;;;;;;12.80;4.38;;;22.30;86.80;;;;;;6332781;22;20353;-78
2020/12/16 09:07:07;;;;;;;15.88;5.35;;;22.40;87.00;;;;;;6337391;22;20456;-78
2020/12/16 09:09:36;;;;;;;11.38;4.05;;;22.30;87.20;;;;;;6327480;22;20014;-78
2020/12/16 09:12:10;;;;;;;16.67;5.38;;;22.30;87.40;;;;;;6328406;22;20063;-78
2020/12/16 09:14:37;;;;;;;14.15;4.28;;;22.30;87.80;;;;;;6302842;22;20077;-77
2020/12/16 09:17:08;;;;;;;13.05;4.00;;;22.30;87.70;;;;;;6327003;22;20014;-77
2020/12/16 09:19:35;;;;;;;14.13;4.25;;;22.40;87.80;;;;;;6326146;22;20015;-77
2020/12/16 09:22:03;;;;;;;13.70;4.57;;;22.30;87.90;;;;;;6337494;22;20350;-78
2020/12/16 09:24:31;;;;;;;14.90;4.22;;;22.30;88.00;;;;;;6326690;22;20029;-77
2020/12/16 09:27:05;;;;;;;11.63;4.13;;;22.30;88.20;;;;;;6326632;22;20022;-78
2020/12/16 09:29:32;;;;;;;16.92;4.80;;;22.20;88.60;;;;;;6313925;22;20303;-77
2020/12/16 09:32:25;;;;;;;22.63;4.93;;;22.30;89.00;;;;;;6328045;22;20018;-77
2020/12/16 09:34:54;;;;;;;15.15;3.88;;;22.40;90.90;;;;;;6329997;22;20237;-79
2020/12/16 09:37:28;;;;;;;16.13;4.53;;;22.40;91.20;;;;;;6336539;22;20014;-77
2020/12/16 09:40:07;;;;;;;15.80;4.25;;;22.40;91.10;;;;;;6343151;22;20026;-77
2020/12/16 09:42:34;;;;;;;16.75;4.30;;;22.30;91.00;;;;;;6337303;22;20394;-77
2020/12/16 09:45:31;;;;;;;12.07;4.30;;;22.30;90.80;;;;;;6325827;22;20038;-77
2020/12/16 09:47:59;;;;;;;13.97;4.53;;;22.30;90.70;;;;;;6322761;22;20041;-78
2020/12/16 09:50:28;;;;;;;14.82;4.38;;;22.30;90.50;;;;;;6326505;22;20469;-78
2020/12/16 09:52:57;;;;;;;12.20;4.20;;;22.40;90.40;;;;;;6323290;22;20015;-77
2020/12/16 09:55:25;;;;;;;17.25;4.28;;;22.40;90.30;;;;;;6327423;22;20413;-78
2020/12/16 09:58:11;;;;;;;11.25;4.20;;;22.50;90.10;;;;;;6336442;22;20022;-79
2020/12/16 10:00:42;;;;;;;16.30;4.38;;;22.50;90.10;;;;;;6297997;22;20019;-77
2020/12/16 10:03:18;;;;;;;14.10;3.88;;;22.50;90.00;;;;;;6324914;22;20022;-77
2020/12/16 10:05:45;;;;;;;12.93;3.70;;;22.50;90.00;;;;;;6337396;22;20747;-77
2020/12/16 10:08:16;;;;;;;12.70;4.03;;;22.40;90.00;;;;;;6326227;22;20717;-78
2020/12/16 10:10:44;;;;;;;13.55;4.28;;;22.40;90.00;;;;;;6327799;22;20017;-77
2020/12/16 10:13:13;;;;;;;14.35;3.80;;;22.50;89.90;;;;;;6340613;22;20040;-77
2020/12/16 10:15:41;;;;;;;12.02;4.32;;;22.60;89.40;;;;;;6338522;22;20023;-77
2020/12/16 10:18:08;;;;;;;12.02;3.60;;;22.70;89.00;;;;;;6324824;22;20018;-78
2020/12/16 10:20:35;;;;;;;13.65;4.05;;;22.70;88.80;;;;;;6325947;22;20011;-78
2020/12/16 10:23:02;;;;;;;13.93;3.85;;;22.70;88.40;;;;;;6325052;22;20034;-78
2020/12/16 10:25:31;;;;;;;;;;;22.70;88.40;;;;;;6331255;22;20017;-76
2020/12/16 10:27:58;;;;;;;12.45;4.25;;;22.70;88.30;;;;;;6312013;22;20006;-76
2020/12/16 10:30:26;;;;;;;12.05;4.07;;;22.70;88.30;;;;;;6339879;22;20771;-76
2020/12/16 10:32:54;;;;;;;;;;;22.70;88.20;;;;;;6326846;22;20034;-76
2020/12/16 10:35:22;;;;;;;11.35;3.80;;;22.70;88.30;;;;;;6326437;22;19922;-76
2020/12/16 10:37:49;;;;;;;11.35;3.60;;;22.70;88.80;;;;;;6337717;22;20028;-76
2020/12/16 10:40:16;;;;;;;10.05;3.75;;;22.60;88.30;;;;;;6351356;22;20114;-77
2020/12/16 10:42:43;;;;;;;9.05;3.90;;;22.60;88.40;;;;;;6300756;22;20061;-77
2020/12/16 10:45:10;;;;;;;12.38;3.97;;;22.60;88.50;;;;;;6324309;22;20019;-77
2020/12/16 10:47:38;;;;;;;12.45;3.80;;;22.60;88.80;;;;;;6327530;22;20015;-78
2020/12/16 10:50:06;;;;;;;16.35;4.47;;;22.50;88.90;;;;;;6330166;22;20022;-78
2020/12/16 10:52:33;;;;;;;11.00;3.80;;;22.50;89.70;;;;;;6329700;22;20623;-77
2020/12/16 10:55:00;;;;;;;14.52;3.85;;;22.50;89.00;;;;;;6327543;22;20037;-77
2020/12/16 10:57:28;;;;;;;12.00;3.38;;;22.40;88.80;;;;;;6304699;22;20061;-77
2020/12/16 10:59:55;;;;;;;12.45;3.92;;;22.40;88.60;;;;;;6343048;22;20029;-77
2020/12/16 11:02:21;;;;;;;12.77;3.72;;;22.40;89.10;;;;;;6340628;22;20017;-78
2020/12/16 11:04:48;;;;;;;13.90;3.97;;;22.30;89.30;;;;;;6340507;22;20019;-77
2020/12/16 11:07:16;;;;;;;13.43;3.67;;;22.30;89.40;;;;;;6344044;22;20010;-78
2020/12/16 11:09:43;;;;;;;11.13;3.42;;;22.30;89.60;;;;;;6340912;22;20395;-77
2020/12/16 11:12:09;;;;;;;11.93;3.78;;;22.30;89.40;;;;;;6317883;22;20018;-77
2020/12/16 11:14:36;;;;;;;12.98;4.13;;;22.40;89.40;;;;;;6332647;22;20018;-77
2020/12/16 11:17:05;;;;;;;9.95;3.00;;;22.30;89.30;;;;;;6327788;22;20026;-77
2020/12/16 11:19:32;;;;;;;10.57;3.78;;;22.30;89.40;;;;;;6326352;22;20018;-76
2020/12/16 11:21:59;;;;;;;12.70;4.07;;;22.30;89.30;;;;;;6326891;22;20010;-76
2020/12/16 11:24:27;;;;;;;11.98;3.33;;;22.40;89.30;;;;;;6297908;22;20118;-77
2020/12/16 11:26:54;;;;;;;;;;;22.40;89.20;;;;;;6329733;22;20030;-77
2020/12/16 11:29:23;;;;;;;10.70;3.42;;;22.50;88.90;;;;;;6305650;22;19923;-77
2020/12/16 11:31:50;;;;;;;12.38;3.78;;;22.60;88.60;;;;;;6279369;22;20018;-78
2020/12/16 11:34:20;;;;;;;11.00;3.20;;;22.70;88.30;;;;;;6329105;22;20030;-77
2020/12/16 11:36:49;;;;;;;7.97;3.10;;;22.70;88.20;;;;;;6331541;22;20018;-77
2020/12/16 11:39:17;;;;;;;9.32;3.10;;;22.80;87.80;;;;;;6331926;22;20014;-77
2020/12/16 11:41:46;;;;;;;9.30;3.10;;;22.90;87.50;;;;;;6334364;22;20019;-77
2020/12/16 11:44:15;;;;;;;12.63;3.50;;;22.90;87.20;;;;;;6335414;22;20034;-77
2020/12/16 11:46:43;;;;;;;11.45;3.67;;;22.90;87.40;;;;;;6334161;22;20023;-78
2020/12/16 11:49:21;;;;;;;13.75;3.28;;;23.00;87.30;;;;;;6337020;22;20011;-77
2020/12/16 11:51:48;;;;;;;22.48;4.68;;;23.10;87.10;;;;;;6335151;22;20045;-76
2020/12/16 11:54:16;;;;;;;21.58;3.88;;;23.10;86.60;;;;;;6304536;22;20023;-76
2020/12/16 11:56:43;;;;;;;15.13;4.40;;;23.10;84.60;;;;;;6306974;22;20384;-76
2020/12/16 11:59:27;;;;;;;15.35;3.75;;;23.00;84.80;;;;;;6354086;22;20014;-77
2020/12/16 12:02:00;;;;;;;15.60;3.92;;;23.00;84.90;;;;;;6332397;22;20446;-76
2020/12/16 12:04:28;;;;;;;12.68;3.42;;;23.10;85.40;;;;;;6338071;22;20022;-76
2020/12/16 12:06:56;;;;;;;9.77;3.53;;;23.00;84.80;;;;;;6304542;22;20022;-75
2020/12/16 12:09:24;;;;;;;9.55;3.35;;;23.00;85.10;;;;;;6333311;22;20465;-75
2020/12/16 12:11:53;;;;;;;13.30;3.55;;;23.00;85.10;;;;;;6331543;22;20021;-75
2020/12/16 12:14:21;;;;;;;11.82;3.60;;;22.90;85.30;;;;;;6332239;22;20025;-75
2020/12/16 12:16:49;;;;;;;10.00;3.45;;;22.90;85.50;;;;;;6345607;22;20021;-75
2020/12/16 12:19:17;;;;;;;13.55;3.88;;;22.90;85.60;;;;;;6364440;22;20007;-76
2020/12/16 12:21:45;;;;;;;11.48;3.90;;;22.90;85.80;;;;;;6363877;22;20058;-76
2020/12/16 12:24:13;;;;;;;13.38;3.30;;;22.90;85.80;;;;;;6338292;22;20018;-77
2020/12/16 12:26:40;;;;;;;13.98;3.40;;;22.90;86.00;;;;;;6308958;22;20007;-77
2020/12/16 12:29:07;;;;;;;12.85;3.25;;;22.90;86.00;;;;;;6334815;22;20018;-77
2020/12/16 12:31:34;;;;;;;13.07;3.05;;;22.90;86.30;;;;;;6335250;22;20022;-78
2020/12/16 12:34:01;;;;;;;11.48;3.85;;;22.90;86.60;;;;;;6334832;22;20022;-77
2020/12/16 12:36:29;;;;;;;11.02;2.75;;;22.90;86.80;;;;;;6333406;22;20018;-77
2020/12/16 12:38:57;;;;;;;13.00;3.58;;;22.90;86.80;;;;;;6334836;22;20019;-77
2020/12/16 12:41:24;;;;;;;7.85;2.83;;;22.90;86.90;;;;;;6307047;22;20025;-78
2020/12/16 12:43:52;;;;;;;10.23;3.75;;;23.00;87.00;;;;;;6331786;22;20034;-76
2020/12/16 12:46:19;;;;;;;11.63;3.75;;;23.10;87.00;;;;;;6335164;22;20007;-76
2020/12/16 12:48:46;;;;;;;11.13;3.53;;;23.00;87.10;;;;;;6343210;22;20550;-77
2020/12/16 12:51:13;;;;;;;11.98;3.20;;;23.00;87.40;;;;;;6334588;22;20588;-77
2020/12/16 12:53:53;;;;;;;14.30;4.82;;;22.90;87.80;;;;;;6306549;22;20023;-77
2020/12/16 12:56:21;;;;;;;9.35;3.25;;;22.90;88.10;;;;;;6310290;22;20019;-78
2020/12/16 12:58:48;;;;;;;14.80;3.47;;;23.00;88.50;;;;;;6337014;22;20018;-77
2020/12/16 13:01:15;;;;;;;16.77;4.70;;;23.00;89.00;;;;;;6334784;22;20014;-77
2020/12/16 13:03:42;;;;;;;11.50;3.72;;;23.00;89.30;;;;;;6338712;22;20018;-77
2020/12/16 13:06:09;;;;;;;9.98;3.13;;;23.10;89.30;;;;;;6338784;22;20015;-77